Time;durP1;ratioP1;P1;durP2;ratioP2;P2;SDS_P1;SDS_P2;PMS_P1;PMS_P2;Temp;Humidity;BMP_temperature;BMP_pressure;BME280_temperature;BME280_humidity;BME280_pressure;Samples;Min_cycle;Max_cycle;Signal;HPM_P1;HPM_P2
2022/01/01 00:00:34;;;;;;;42.05;11.23;;;;;;;;;;5039741;28;20033;-59
2022/01/01 00:03:01;;;;;;;49.80;8.25;;;;;;;;;;5037403;28;20123;-60
2022/01/01 00:05:26;;;;;;;47.60;10.13;;;;;;;;;;5037573;28;20385;-60
2022/01/01 00:07:52;;;;;;;56.20;10.95;;;;;;;;;;5038631;28;20055;-60
2022/01/01 00:10:20;;;;;;;54.03;10.40;;;;;;;;;;5037428;28;20041;-63
2022/01/01 00:12:47;;;;;;;70.85;10.45;;;;;;;;;;5038387;28;20030;-60
2022/01/01 00:15:13;;;;;;;54.85;9.73;;;;;;;;;;5036983;28;20528;-60
2022/01/01 00:17:40;;;;;;;42.63;10.13;;;;;;;;;;5032504;28;20099;-60
2022/01/01 00:20:09;;;;;;;61.33;11.23;;;;;;;;;;5035135;28;20542;-60
2022/01/01 00:22:42;;;;;;;56.58;9.50;;;;;;;;;;5035522;28;20025;-66
2022/01/01 00:25:08;;;;;;;57.15;10.15;;;;;;;;;;5035839;28;20117;-59
2022/01/01 00:27:34;;;;;;;41.25;10.23;;;;;;;;;;5039426;28;20043;-58
2022/01/01 00:30:00;;;;;;;57.50;11.68;;;;;;;;;;5032051;28;20025;-59
2022/01/01 00:32:26;;;;;;;44.55;8.23;;;;;;;;;;5034334;28;20433;-63
2022/01/01 00:34:51;;;;;;;55.78;9.38;;;;;;;;;;5035070;28;20396;-59
2022/01/01 00:37:17;;;;;;;60.10;9.93;;;;;;;;;;5038677;28;20029;-60
2022/01/01 00:39:43;;;;;;;47.65;9.55;;;;;;;;;;5038465;28;20030;-60
2022/01/01 00:42:09;;;;;;;60.67;9.00;;;;;;;;;;5038030;28;20114;-60
2022/01/01 00:44:34;;;;;;;73.40;9.90;;;;;;;;;;5044190;28;20027;-60
2022/01/01 00:47:00;;;;;;;56.55;9.57;;;;;;;;;;5047144;28;20032;-59
2022/01/01 00:49:26;;;;;;;52.92;9.35;;;;;;;;;;5040877;28;20026;-59
2022/01/01 00:51:51;;;;;;;52.20;10.57;;;;;;;;;;5037399;28;20033;-59
2022/01/01 00:54:17;;;;;;;45.25;8.60;;;;;;;;;;5038897;28;20669;-58
2022/01/01 00:56:42;;;;;;;50.10;7.25;;;;;;;;;;5037531;28;20044;-59
2022/01/01 00:59:08;;;;;;;61.08;8.50;;;;;;;;;;5037910;28;20040;-58
2022/01/01 01:01:34;;;;;;;61.63;10.70;;;;;;;;;;5040128;28;20488;-60
2022/01/01 01:03:59;;;;;;;60.67;9.93;;;;;;;;;;5038712;28;20105;-58
2022/01/01 01:06:25;;;;;;;48.45;8.63;;;;;;;;;;5043043;28;20079;-59
2022/01/01 01:08:53;;;;;;;56.53;9.80;;;;;;;;;;5040126;28;20033;-59
2022/01/01 01:11:19;;;;;;;54.28;8.50;;;;;;;;;;5038278;28;20021;-61
2022/01/01 01:13:50;;;;;;;59.38;8.80;;;;;;;;;;5044008;28;20518;-59
2022/01/01 01:16:16;;;;;;;52.20;7.90;;;;;;;;;;5043583;28;20099;-59
2022/01/01 01:18:41;;;;;;;41.20;6.93;;;;;;;;;;5039532;28;20536;-59
2022/01/01 01:21:07;;;;;;;62.97;10.52;;;;;;;;;;5040188;28;20029;-59
2022/01/01 01:23:33;;;;;;;43.67;7.03;;;;;;;;;;5040958;28;20033;-59
2022/01/01 01:26:00;;;;;;;58.00;7.35;;;;;;;;;;5038512;28;20432;-60
2022/01/01 01:28:26;;;;;;;42.03;7.50;;;;;;;;;;5037100;28;20120;-59
2022/01/01 01:30:51;;;;;;;58.42;8.13;;;;;;;;;;5038680;28;20113;-59
2022/01/01 01:33:17;;;;;;;48.92;6.93;;;;;;;;;;5047231;28;20136;-59
2022/01/01 01:35:42;;;;;;;53.00;7.07;;;;;;;;;;5034785;28;20025;-59
2022/01/01 01:38:08;;;;;;;42.35;9.35;;;;;;;;;;5046557;28;20074;-59
2022/01/01 01:40:33;;;;;;;44.22;6.85;;;;;;;;;;5040824;28;20026;-60
2022/01/01 01:43:00;;;;;;;54.38;7.70;;;;;;;;;;5039027;28;20413;-59
2022/01/01 01:45:28;;;;;;;25.05;5.43;;;;;;;;;;5034321;28;20451;-63
2022/01/01 01:47:54;;;;;;;53.63;7.40;;;;;;;;;;5037925;28;20025;-60
2022/01/01 01:50:20;;;;;;;51.95;6.65;;;;;;;;;;5042959;28;20041;-60
2022/01/01 01:52:50;;;;;;;31.63;6.75;;;;;;;;;;5034250;28;20037;-59
2022/01/01 01:55:16;;;;;;;60.15;7.68;;;;;;;;;;5038145;28;20425;-60
2022/01/01 01:57:42;;;;;;;53.85;8.20;;;;;;;;;;5034575;28;20120;-61
2022/01/01 02:00:58;;;;;;;44.85;6.30;;;;;;;;;;5036704;28;20110;-59
2022/01/01 02:03:09;;;;;;;54.38;7.30;;;;;;;;;;5040099;28;20040;-60
2022/01/01 02:05:35;;;;;;;38.40;5.32;;;;;;;;;;5041302;28;20017;-61
2022/01/01 02:08:01;;;;;;;40.55;5.28;;;;;;;;;;5032192;28;20029;-65
2022/01/01 02:10:27;;;;;;;50.55;5.57;;;;;;;;;;5044492;28;20048;-60
2022/01/01 02:12:55;;;;;;;62.38;7.55;;;;;;;;;;5036994;28;20111;-59
2022/01/01 02:18:07;;;;;;;52.85;6.65;;;;;;;;;;5041379;28;20203;-59
2022/01/01 02:20:33;;;;;;;39.00;6.38;;;;;;;;;;5041917;28;20160;-61
2022/01/01 02:23:00;;;;;;;44.45;6.07;;;;;;;;;;5041996;28;20488;-60
2022/01/01 02:25:27;;;;;;;33.38;5.80;;;;;;;;;;5043158;28;20236;-60
2022/01/01 02:27:53;;;;;;;54.80;8.75;;;;;;;;;;5040181;28;20036;-60
2022/01/01 02:30:19;;;;;;;63.92;9.23;;;;;;;;;;5037765;28;20369;-59
2022/01/01 02:32:44;;;;;;;66.72;9.32;;;;;;;;;;5039816;28;20021;-59
2022/01/01 02:35:13;;;;;;;62.33;6.97;;;;;;;;;;5041790;28;20396;-60
2022/01/01 02:37:40;;;;;;;69.03;7.88;;;;;;;;;;5033344;28;20061;-60
2022/01/01 02:40:07;;;;;;;59.88;7.47;;;;;;;;;;5041951;28;20396;-60
2022/01/01 02:42:33;;;;;;;64.70;8.38;;;;;;;;;;5038557;28;20048;-58
2022/01/01 02:44:59;;;;;;;46.88;6.88;;;;;;;;;;5040412;28;20033;-59
2022/01/01 02:47:25;;;;;;;53.00;6.65;;;;;;;;;;5040937;28;20037;-59
2022/01/01 02:49:51;;;;;;;65.10;8.55;;;;;;;;;;5037340;28;20611;-62
2022/01/01 02:52:17;;;;;;;47.20;6.22;;;;;;;;;;5034710;28;20033;-58
2022/01/01 02:54:43;;;;;;;56.60;5.95;;;;;;;;;;5036534;28;20396;-59
2022/01/01 02:57:08;;;;;;;61.85;7.85;;;;;;;;;;5033802;28;20038;-61
2022/01/01 02:59:33;;;;;;;54.47;8.40;;;;;;;;;;5033083;28;20103;-60
2022/01/01 03:01:59;;;;;;;45.65;6.00;;;;;;;;;;5039712;28;20061;-60
2022/01/01 03:04:25;;;;;;;47.28;7.53;;;;;;;;;;5037890;28;20017;-61
2022/01/01 03:06:55;;;;;;;51.92;7.30;;;;;;;;;;5043611;28;20051;-60
2022/01/01 03:09:23;;;;;;;70.95;8.13;;;;;;;;;;5040481;28;20040;-65
2022/01/01 03:11:49;;;;;;;55.38;7.10;;;;;;;;;;5041566;28;20036;-68
2022/01/01 03:14:17;;;;;;;53.97;6.65;;;;;;;;;;5035068;28;20054;-69
2022/01/01 03:16:47;;;;;;;72.15;8.15;;;;;;;;;;5037721;28;20207;-70
2022/01/01 03:19:13;;;;;;;73.57;7.55;;;;;;;;;;5035198;28;20191;-59
2022/01/01 03:21:39;;;;;;;52.20;7.63;;;;;;;;;;5035843;28;20026;-63
2022/01/01 03:24:06;;;;;;;69.80;8.15;;;;;;;;;;5036644;28;20009;-63
2022/01/01 03:26:31;;;;;;;68.85;8.00;;;;;;;;;;5037264;28;20171;-65
2022/01/01 03:28:57;;;;;;;81.25;10.70;;;;;;;;;;5035580;28;20135;-67
2022/01/01 03:31:24;;;;;;;62.95;7.82;;;;;;;;;;5038674;28;20025;-72
2022/01/01 03:33:51;;;;;;;83.05;8.73;;;;;;;;;;5041544;28;20037;-70
2022/01/01 03:36:16;;;;;;;63.78;7.95;;;;;;;;;;5037639;28;20137;-70
2022/01/01 03:38:42;;;;;;;97.03;11.43;;;;;;;;;;5038394;28;20542;-69
2022/01/01 03:41:07;;;;;;;70.95;9.50;;;;;;;;;;5038043;28;20037;-68
2022/01/01 03:43:33;;;;;;;71.68;8.35;;;;;;;;;;5031237;28;20034;-69
2022/01/01 03:45:58;;;;;;;89.47;10.38;;;;;;;;;;5038929;28;20333;-69
2022/01/01 03:48:24;;;;;;;76.70;9.80;;;;;;;;;;5043132;28;20499;-68
2022/01/01 03:50:49;;;;;;;76.40;9.57;;;;;;;;;;5033114;28;20502;-67
2022/01/01 03:53:16;;;;;;;75.60;8.75;;;;;;;;;;5038291;28;20455;-64
2022/01/01 03:55:42;;;;;;;68.07;8.05;;;;;;;;;;5037863;28;20036;-66
2022/01/01 03:58:07;;;;;;;84.28;9.07;;;;;;;;;;5032937;28;20248;-69
2022/01/01 04:00:33;;;;;;;57.10;8.07;;;;;;;;;;5035956;28;20415;-67
2022/01/01 04:03:10;;;;;;;76.25;10.38;;;;;;;;;;5034589;28;20109;-69
2022/01/01 04:05:36;;;;;;;70.20;9.13;;;;;;;;;;5038843;28;20040;-68
2022/01/01 04:08:05;;;;;;;61.67;6.90;;;;;;;;;;5038554;28;20036;-64
2022/01/01 04:10:31;;;;;;;70.47;8.55;;;;;;;;;;5033346;28;20063;-68
2022/01/01 04:13:00;;;;;;;67.90;7.20;;;;;;;;;;5034440;28;20387;-68
2022/01/01 04:15:27;;;;;;;89.00;9.75;;;;;;;;;;5039388;28;20036;-67
2022/01/01 04:17:59;;;;;;;83.30;10.63;;;;;;;;;;5037027;28;20443;-68
2022/01/01 04:20:25;;;;;;;70.22;11.05;;;;;;;;;;5037303;28;20061;-63
2022/01/01 04:22:55;;;;;;;89.93;9.43;;;;;;;;;;5035781;28;20505;-66
2022/01/01 04:25:22;;;;;;;67.97;8.95;;;;;;;;;;5037085;28;20122;-64
2022/01/01 04:27:49;;;;;;;53.17;7.50;;;;;;;;;;5029458;28;20024;-65
2022/01/01 04:30:15;;;;;;;52.90;5.95;;;;;;;;;;5040949;28;20349;-61
2022/01/01 04:32:40;;;;;;;41.25;6.20;;;;;;;;;;5034657;28;20022;-61
2022/01/01 04:35:06;;;;;;;76.80;8.98;;;;;;;;;;5034087;28;20060;-60
2022/01/01 04:37:33;;;;;;;79.15;7.90;;;;;;;;;;5032494;28;20108;-60
2022/01/01 04:39:59;;;;;;;65.65;6.90;;;;;;;;;;5034560;28;20041;-63
2022/01/01 04:42:29;;;;;;;59.08;6.72;;;;;;;;;;5035715;28;20029;-65
2022/01/01 04:44:55;;;;;;;67.00;8.38;;;;;;;;;;5042676;28;20492;-60
2022/01/01 04:47:20;;;;;;;60.83;8.00;;;;;;;;;;5046978;28;20032;-59
2022/01/01 04:49:46;;;;;;;63.17;7.90;;;;;;;;;;5029100;28;20108;-69
2022/01/01 04:52:11;;;;;;;49.03;9.02;;;;;;;;;;5031401;28;20041;-62
2022/01/01 04:54:41;;;;;;;56.45;8.23;;;;;;;;;;5032933;28;20294;-62
2022/01/01 04:57:07;;;;;;;23.15;5.50;;;;;;;;;;5031287;28;20033;-63
2022/01/01 04:59:36;;;;;;;50.33;7.28;;;;;;;;;;5040212;28;20036;-66
2022/01/01 05:02:03;;;;;;;35.42;6.07;;;;;;;;;;5037714;28;20037;-62
2022/01/01 05:04:28;;;;;;;49.33;5.57;;;;;;;;;;5038331;28;20275;-61
2022/01/01 05:06:54;;;;;;;41.45;6.20;;;;;;;;;;5042874;28;20476;-60
2022/01/01 05:09:20;;;;;;;38.70;4.60;;;;;;;;;;5040342;28;20057;-61
2022/01/01 05:11:47;;;;;;;33.78;5.05;;;;;;;;;;5043957;28;20025;-62
2022/01/01 05:14:13;;;;;;;43.17;6.35;;;;;;;;;;5035926;28;20038;-62
2022/01/01 05:16:40;;;;;;;57.33;8.55;;;;;;;;;;5039138;28;20033;-62
2022/01/01 05:19:08;;;;;;;77.22;7.85;;;;;;;;;;5034502;28;20049;-62
2022/01/01 05:21:35;;;;;;;63.20;7.88;;;;;;;;;;5043936;28;20029;-66
2022/01/01 05:24:03;;;;;;;43.20;5.90;;;;;;;;;;5046418;28;20049;-60
2022/01/01 05:26:29;;;;;;;70.40;7.55;;;;;;;;;;5039534;28;20036;-65
2022/01/01 05:28:54;;;;;;;43.20;8.15;;;;;;;;;;5042287;28;20030;-67
2022/01/01 05:31:20;;;;;;;54.47;6.75;;;;;;;;;;5041073;28;20087;-64
2022/01/01 05:33:46;;;;;;;84.30;8.13;;;;;;;;;;5046536;28;20043;-66
2022/01/01 05:36:13;;;;;;;58.15;9.23;;;;;;;;;;5040700;28;20034;-64
2022/01/01 05:38:38;;;;;;;71.55;9.55;;;;;;;;;;5038800;28;20108;-64
2022/01/01 05:41:04;;;;;;;63.08;8.02;;;;;;;;;;5037877;28;20116;-64
2022/01/01 05:43:30;;;;;;;59.67;6.78;;;;;;;;;;5045536;28;20032;-64
2022/01/01 05:45:55;;;;;;;49.63;6.30;;;;;;;;;;5042183;28;20036;-64
2022/01/01 05:48:21;;;;;;;49.42;7.28;;;;;;;;;;5039832;28;20068;-62
2022/01/01 05:50:46;;;;;;;81.38;9.00;;;;;;;;;;5035858;28;20032;-61
2022/01/01 05:53:12;;;;;;;64.00;8.65;;;;;;;;;;5041206;28;20037;-65
2022/01/01 05:55:38;;;;;;;72.78;7.82;;;;;;;;;;5042444;28;20029;-63
2022/01/01 05:58:05;;;;;;;71.70;9.23;;;;;;;;;;5045505;28;20036;-60
2022/01/01 06:00:31;;;;;;;58.42;8.10;;;;;;;;;;5045202;28;20025;-57
2022/01/01 06:03:00;;;;;;;74.97;9.00;;;;;;;;;;5040284;28;20064;-60
2022/01/01 06:05:29;;;;;;;76.43;8.40;;;;;;;;;;5041816;28;20029;-59
2022/01/01 06:07:56;;;;;;;63.75;8.15;;;;;;;;;;5043074;28;20063;-57
2022/01/01 06:10:22;;;;;;;53.22;7.25;;;;;;;;;;5038270;28;20029;-58
2022/01/01 06:12:49;;;;;;;87.22;12.13;;;;;;;;;;5043629;28;20075;-70
2022/01/01 06:15:14;;;;;;;85.85;9.48;;;;;;;;;;5038214;28;20102;-59
2022/01/01 06:17:40;;;;;;;80.47;8.23;;;;;;;;;;5045795;28;20487;-59
2022/01/01 06:20:06;;;;;;;71.53;7.47;;;;;;;;;;5038743;28;20083;-60
2022/01/01 06:22:32;;;;;;;73.03;8.20;;;;;;;;;;5044499;28;20033;-58
2022/01/01 06:24:57;;;;;;;90.28;8.75;;;;;;;;;;5037861;28;20391;-58
2022/01/01 06:27:23;;;;;;;78.20;8.23;;;;;;;;;;5040712;28;20036;-59
2022/01/01 06:29:48;;;;;;;88.57;10.68;;;;;;;;;;5039096;28;20044;-59
2022/01/01 06:32:14;;;;;;;70.68;8.98;;;;;;;;;;5036829;28;20477;-59
2022/01/01 06:34:39;;;;;;;77.95;9.52;;;;;;;;;;5036985;28;20592;-58
2022/01/01 06:37:05;;;;;;;87.32;8.35;;;;;;;;;;5038837;28;20033;-69
2022/01/01 06:39:30;;;;;;;65.07;6.95;;;;;;;;;;5035268;28;20032;-60
2022/01/01 06:41:56;;;;;;;68.03;7.43;;;;;;;;;;5038193;28;20439;-61
2022/01/01 06:44:21;;;;;;;59.92;8.98;;;;;;;;;;5042421;28;20419;-63
2022/01/01 06:46:47;;;;;;;76.07;10.20;;;;;;;;;;5043122;28;20166;-63
2022/01/01 06:49:13;;;;;;;67.35;8.38;;;;;;;;;;5035489;28;20514;-63
2022/01/01 06:51:38;;;;;;;70.50;7.18;;;;;;;;;;5032503;28;20547;-61
2022/01/01 06:54:05;;;;;;;53.63;8.30;;;;;;;;;;5041001;28;20036;-61
2022/01/01 06:56:30;;;;;;;44.00;7.43;;;;;;;;;;5035361;28;20119;-61
2022/01/01 06:58:56;;;;;;;49.40;5.97;;;;;;;;;;5034743;28;20350;-60
2022/01/01 07:01:22;;;;;;;57.95;6.07;;;;;;;;;;5040926;28;20108;-60
2022/01/01 07:03:47;;;;;;;68.18;7.22;;;;;;;;;;5040251;28;20101;-60
2022/01/01 07:06:13;;;;;;;73.07;8.93;;;;;;;;;;5032848;28;20044;-61
2022/01/01 07:08:38;;;;;;;56.80;6.03;;;;;;;;;;5039342;28;20033;-60
2022/01/01 07:11:04;;;;;;;77.05;8.80;;;;;;;;;;5041740;28;20072;-61
2022/01/01 07:13:29;;;;;;;81.10;8.07;;;;;;;;;;5037063;28;20057;-61
2022/01/01 07:15:55;;;;;;;86.85;9.13;;;;;;;;;;5039162;28;20067;-68
2022/01/01 07:18:20;;;;;;;80.97;7.60;;;;;;;;;;5039048;28;20032;-67
2022/01/01 07:20:46;;;;;;;88.65;11.40;;;;;;;;;;5038380;28;20463;-65
2022/01/01 07:23:11;;;;;;;59.20;8.77;;;;;;;;;;5037756;28;20034;-65
2022/01/01 07:25:37;;;;;;;54.85;7.78;;;;;;;;;;5035431;28;20024;-66
2022/01/01 07:28:03;;;;;;;68.68;10.68;;;;;;;;;;5037537;28;20021;-62
2022/01/01 07:30:28;;;;;;;54.03;6.03;;;;;;;;;;5035058;28;20408;-63
2022/01/01 07:32:54;;;;;;;48.30;5.07;;;;;;;;;;5036205;28;20060;-63
2022/01/01 07:35:21;;;;;;;57.38;5.38;;;;;;;;;;5034964;28;20028;-62
2022/01/01 07:37:46;;;;;;;49.22;7.47;;;;;;;;;;5037075;28;20074;-66
2022/01/01 07:40:14;;;;;;;56.03;5.28;;;;;;;;;;5036595;28;20490;-63
2022/01/01 07:42:41;;;;;;;44.00;6.68;;;;;;;;;;5034937;28;20026;-59
2022/01/01 07:45:07;;;;;;;67.32;6.90;;;;;;;;;;5035045;28;20020;-60
2022/01/01 07:47:33;;;;;;;44.40;5.30;;;;;;;;;;5039027;28;20040;-62
2022/01/01 07:49:58;;;;;;;46.17;6.38;;;;;;;;;;5037687;28;20025;-61
2022/01/01 07:52:24;;;;;;;93.30;8.40;;;;;;;;;;5033503;28;20032;-63
2022/01/01 07:54:50;;;;;;;63.08;5.20;;;;;;;;;;5031385;28;20025;-65
2022/01/01 07:57:15;;;;;;;49.08;5.93;;;;;;;;;;5032027;28;20134;-63
2022/01/01 07:59:41;;;;;;;55.92;5.85;;;;;;;;;;5035758;28;20047;-63
2022/01/01 08:02:07;;;;;;;47.67;5.60;;;;;;;;;;5034842;28;20108;-64
2022/01/01 08:04:32;;;;;;;95.05;9.15;;;;;;;;;;5035402;28;20033;-63
2022/01/01 08:06:58;;;;;;;69.75;7.93;;;;;;;;;;5035621;28;20084;-65
2022/01/01 08:09:23;;;;;;;56.65;6.88;;;;;;;;;;5018235;28;20037;-69
2022/01/01 08:11:50;;;;;;;60.40;7.22;;;;;;;;;;5032399;28;20025;-71
2022/01/01 08:14:16;;;;;;;49.80;8.02;;;;;;;;;;5034507;28;20128;-70
2022/01/01 08:17:01;;;;;;;62.88;7.60;;;;;;;;;;5032744;28;20116;-72
2022/01/01 08:19:28;;;;;;;60.78;6.28;;;;;;;;;;5034123;28;20021;-73
2022/01/01 08:21:54;;;;;;;57.60;6.07;;;;;;;;;;5036228;28;20569;-72
2022/01/01 08:24:20;;;;;;;58.67;4.65;;;;;;;;;;5040773;28;20064;-63
2022/01/01 08:26:46;;;;;;;59.97;5.55;;;;;;;;;;5044891;28;20037;-63
2022/01/01 08:29:11;;;;;;;47.95;6.20;;;;;;;;;;5034431;28;20028;-63
2022/01/01 08:31:37;;;;;;;20.58;3.88;;;;;;;;;;5037536;28;20569;-62
2022/01/01 08:34:03;;;;;;;47.17;6.78;;;;;;;;;;5041168;28;20041;-60
2022/01/01 08:36:28;;;;;;;51.33;5.80;;;;;;;;;;5038788;28;20052;-61
2022/01/01 08:38:54;;;;;;;60.25;4.55;;;;;;;;;;5044703;28;20075;-61
2022/01/01 08:41:19;;;;;;;43.85;5.38;;;;;;;;;;5033205;28;20400;-61
2022/01/01 08:43:45;;;;;;;47.88;5.07;;;;;;;;;;5041365;28;20021;-61
2022/01/01 08:46:11;;;;;;;41.83;6.10;;;;;;;;;;5043022;28;20033;-62
2022/01/01 08:48:37;;;;;;;56.83;5.63;;;;;;;;;;5037824;28;20026;-63
2022/01/01 08:51:35;;;;;;;37.20;5.22;;;;;;;;;;5043722;28;20048;-61
2022/01/01 08:54:02;;;;;;;27.75;5.38;;;;;;;;;;5029262;28;20535;-64
2022/01/01 08:56:27;;;;;;;42.08;6.90;;;;;;;;;;5037527;28;20037;-65
2022/01/01 08:58:53;;;;;;;42.75;5.55;;;;;;;;;;5044350;28;20324;-60
2022/01/01 09:01:19;;;;;;;52.40;5.75;;;;;;;;;;5047357;28;20349;-62
2022/01/01 09:03:45;;;;;;;49.85;5.60;;;;;;;;;;5037739;28;20078;-62
2022/01/01 09:06:11;;;;;;;38.75;4.18;;;;;;;;;;5038617;28;20120;-60
2022/01/01 09:08:41;;;;;;;54.47;6.13;;;;;;;;;;5038933;28;20049;-62
2022/01/01 09:11:11;;;;;;;55.35;6.13;;;;;;;;;;5042680;28;20531;-59
2022/01/01 09:13:42;;;;;;;59.15;6.35;;;;;;;;;;5043737;28;20073;-68
2022/01/01 09:16:13;;;;;;;60.60;4.93;;;;;;;;;;5038664;28;20029;-60
2022/01/01 09:18:40;;;;;;;56.85;5.65;;;;;;;;;;5042211;28;20040;-61
2022/01/01 09:21:06;;;;;;;58.78;5.00;;;;;;;;;;5039068;28;20341;-60
2022/01/01 09:23:31;;;;;;;45.70;5.00;;;;;;;;;;5034706;28;20029;-61
2022/01/01 09:25:57;;;;;;;55.13;4.55;;;;;;;;;;5038312;28;20113;-65
2022/01/01 09:28:22;;;;;;;59.70;6.72;;;;;;;;;;5040813;28;20439;-67
2022/01/01 09:30:48;;;;;;;62.53;5.40;;;;;;;;;;5046491;28;20488;-67
2022/01/01 09:33:14;;;;;;;58.42;5.63;;;;;;;;;;5035220;28;20025;-63
2022/01/01 09:35:40;;;;;;;63.40;5.63;;;;;;;;;;5037254;28;20112;-63
2022/01/01 09:38:05;;;;;;;56.05;7.30;;;;;;;;;;5039943;28;20033;-67
2022/01/01 09:40:32;;;;;;;67.40;5.55;;;;;;;;;;5036938;28;20047;-64
2022/01/01 09:42:58;;;;;;;76.65;8.63;;;;;;;;;;5036943;28;20030;-66
2022/01/01 09:45:24;;;;;;;72.28;6.55;;;;;;;;;;5036375;28;20595;-62
2022/01/01 09:47:50;;;;;;;59.95;4.50;;;;;;;;;;5038430;28;20334;-65
2022/01/01 09:50:16;;;;;;;47.92;5.18;;;;;;;;;;5041209;28;20033;-64
2022/01/01 09:52:41;;;;;;;66.43;9.52;;;;;;;;;;5037865;28;20032;-64
2022/01/01 09:55:09;;;;;;;60.92;8.02;;;;;;;;;;5036675;28;20500;-63
2022/01/01 09:57:34;;;;;;;55.67;5.65;;;;;;;;;;5040806;28;20041;-62
2022/01/01 10:00:00;;;;;;;47.78;5.45;;;;;;;;;;5043528;28;20021;-65
2022/01/01 10:02:26;;;;;;;64.20;6.20;;;;;;;;;;5036818;28;20032;-65
2022/01/01 10:04:54;;;;;;;55.90;5.90;;;;;;;;;;5042796;28;20127;-63
2022/01/01 10:07:29;;;;;;;56.35;6.93;;;;;;;;;;5040633;28;20493;-64
2022/01/01 10:09:54;;;;;;;81.90;8.65;;;;;;;;;;5038083;28;20021;-64
2022/01/01 10:12:35;;;;;;;62.25;7.32;;;;;;;;;;5038177;28;20434;-64
2022/01/01 10:15:06;;;;;;;73.07;6.57;;;;;;;;;;5039729;28;20045;-63
2022/01/01 10:17:32;;;;;;;56.15;6.47;;;;;;;;;;5035854;28;20041;-64
2022/01/01 10:19:58;;;;;;;73.35;7.60;;;;;;;;;;5041741;28;20055;-66
2022/01/01 10:22:24;;;;;;;58.55;6.32;;;;;;;;;;5034872;28;20057;-64
2022/01/01 10:27:58;;;;;;;55.08;7.50;;;;;;;;;;5038211;28;20475;-67
2022/01/01 10:30:39;;;;;;;47.05;4.50;;;;;;;;;;5036911;28;20032;-62
2022/01/01 10:33:08;;;;;;;60.55;4.93;;;;;;;;;;5038360;28;20028;-64
2022/01/01 10:35:38;;;;;;;54.00;5.28;;;;;;;;;;5038204;28;20447;-63
2022/01/01 10:38:06;;;;;;;51.25;4.88;;;;;;;;;;5035325;28;20037;-68
2022/01/01 10:40:32;;;;;;;50.80;4.22;;;;;;;;;;5040609;28;20279;-63
2022/01/01 10:42:57;;;;;;;52.92;6.13;;;;;;;;;;5037602;28;20527;-69
2022/01/01 10:45:32;;;;;;;55.55;5.93;;;;;;;;;;5038752;28;20022;-63
2022/01/01 10:51:02;;;;;;;68.25;6.78;;;;;;;;;;5014877;28;20041;-62
2022/01/01 10:53:29;;;;;;;80.53;8.25;;;;;;;;;;5035216;28;20025;-64
2022/01/01 10:55:59;;;;;;;84.65;9.40;;;;;;;;;;5040689;28;20028;-68
2022/01/01 10:58:31;;;;;;;51.13;6.35;;;;;;;;;;5033268;28;20078;-66
2022/01/01 11:01:06;;;;;;;45.90;6.18;;;;;;;;;;5036584;28;20033;-63
2022/01/01 11:03:42;;;;;;;52.92;4.93;;;;;;;;;;5040517;28;20507;-62
2022/01/01 11:06:10;;;;;;;67.88;5.05;;;;;;;;;;5036450;28;20040;-64
2022/01/01 11:08:40;;;;;;;60.03;4.60;;;;;;;;;;5038337;28;20108;-65
2022/01/01 11:11:06;;;;;;;57.47;5.50;;;;;;;;;;5037901;28;20021;-64
2022/01/01 11:13:32;;;;;;;59.88;7.20;;;;;;;;;;5037676;28;20045;-65
2022/01/01 11:15:58;;;;;;;49.80;5.03;;;;;;;;;;5037498;28;20033;-66
2022/01/01 11:18:27;;;;;;;66.53;6.35;;;;;;;;;;5038138;28;20595;-61
2022/01/01 11:20:53;;;;;;;80.03;7.07;;;;;;;;;;5033733;28;20030;-63
2022/01/01 11:23:20;;;;;;;61.95;6.38;;;;;;;;;;5037892;28;20025;-64
2022/01/01 11:25:46;;;;;;;56.58;6.18;;;;;;;;;;5030077;28;20024;-66
2022/01/01 11:28:17;;;;;;;40.45;5.15;;;;;;;;;;5044866;28;20028;-63
2022/01/01 11:30:51;;;;;;;49.10;7.20;;;;;;;;;;5035068;28;20096;-62
2022/01/01 11:33:28;;;;;;;57.03;6.20;;;;;;;;;;5042768;28;20025;-64
2022/01/01 11:35:56;;;;;;;63.75;6.72;;;;;;;;;;5036924;28;20481;-65
2022/01/01 11:38:23;;;;;;;49.75;6.45;;;;;;;;;;5037424;28;20021;-63
2022/01/01 11:41:11;;;;;;;51.60;6.50;;;;;;;;;;5037285;28;20045;-63
2022/01/01 11:43:49;;;;;;;76.28;6.05;;;;;;;;;;5038723;28;20017;-63
2022/01/01 11:46:18;;;;;;;61.78;6.68;;;;;;;;;;5044169;28;20070;-64
2022/01/01 11:48:54;;;;;;;58.35;6.05;;;;;;;;;;5040485;28;20032;-63
2022/01/01 11:51:38;;;;;;;50.05;4.40;;;;;;;;;;5045505;28;20468;-74
2022/01/01 11:54:32;;;;;;;54.85;5.25;;;;;;;;;;5035229;28;20037;-67
2022/01/01 11:57:08;;;;;;;31.85;5.20;;;;;;;;;;5040770;28;20021;-69
2022/01/01 11:59:36;;;;;;;53.20;5.80;;;;;;;;;;5039283;28;20104;-71
2022/01/01 12:02:04;;;;;;;56.10;6.78;;;;;;;;;;5033491;28;20108;-72
2022/01/01 12:04:45;;;;;;;29.10;3.75;;;;;;;;;;5039806;28;20021;-68
2022/01/01 12:07:29;;;;;;;44.13;5.82;;;;;;;;;;5035291;28;20412;-74
2022/01/01 12:10:06;;;;;;;42.13;4.93;;;;;;;;;;5035964;28;20033;-74
2022/01/01 12:12:50;;;;;;;48.55;5.20;;;;;;;;;;5045162;28;20229;-66
2022/01/01 12:15:42;;;;;;;35.20;4.28;;;;;;;;;;5032864;28;20030;-70
2022/01/01 12:18:29;;;;;;;61.03;4.78;;;;;;;;;;5037392;28;20026;-66
2022/01/01 12:21:02;;;;;;;67.32;7.15;;;;;;;;;;5041723;28;20407;-71
2022/01/01 12:23:36;;;;;;;50.25;5.68;;;;;;;;;;5040978;28;20021;-72
2022/01/01 12:26:08;;;;;;;42.92;4.63;;;;;;;;;;5026748;28;20025;-71
2022/01/01 12:28:36;;;;;;;71.03;8.35;;;;;;;;;;5038123;28;20022;-75
2022/01/01 12:31:14;;;;;;;51.72;5.70;;;;;;;;;;5036172;28;20221;-75
2022/01/01 12:33:45;;;;;;;57.75;6.10;;;;;;;;;;5040876;28;20029;-73
2022/01/01 12:36:19;;;;;;;50.92;5.70;;;;;;;;;;5037370;28;20030;-76
2022/01/01 12:39:00;;;;;;;49.78;5.90;;;;;;;;;;5039194;28;20488;-70
2022/01/01 12:41:33;;;;;;;63.10;4.78;;;;;;;;;;5033426;28;20124;-72
2022/01/01 12:44:04;;;;;;;61.40;6.75;;;;;;;;;;5038516;28;20121;-68
2022/01/01 12:46:32;;;;;;;40.88;4.88;;;;;;;;;;5034912;28;20396;-71
2022/01/01 12:49:00;;;;;;;56.40;6.68;;;;;;;;;;5034254;28;20416;-72
2022/01/01 12:51:28;;;;;;;33.50;4.80;;;;;;;;;;5036836;28;20017;-70
2022/01/01 12:54:02;;;;;;;51.15;5.50;;;;;;;;;;5041195;28;20028;-75
2022/01/01 12:56:29;;;;;;;43.50;5.72;;;;;;;;;;5040048;28;20025;-70
2022/01/01 12:59:08;;;;;;;46.58;5.13;;;;;;;;;;5038495;28;20033;-74
2022/01/01 13:01:38;;;;;;;56.10;5.43;;;;;;;;;;5042293;28;20025;-74
2022/01/01 13:04:30;;;;;;;68.85;6.22;;;;;;;;;;5044191;28;20017;-73
2022/01/01 13:07:00;;;;;;;57.13;6.10;;;;;;;;;;5035715;28;20044;-74
2022/01/01 13:09:29;;;;;;;64.68;5.65;;;;;;;;;;5035275;28;20025;-64
2022/01/01 13:11:57;;;;;;;63.45;5.95;;;;;;;;;;5039077;28;20025;-63
2022/01/01 13:14:28;;;;;;;48.83;5.07;;;;;;;;;;5031271;28;20057;-76
2022/01/01 13:16:54;;;;;;;45.92;5.03;;;;;;;;;;5040479;28;20060;-74
2022/01/01 13:19:19;;;;;;;52.35;5.10;;;;;;;;;;5038419;28;20029;-71
2022/01/01 13:21:45;;;;;;;42.58;5.32;;;;;;;;;;5038094;28;20035;-74
2022/01/01 13:24:12;;;;;;;45.85;6.57;;;;;;;;;;5038949;28;20028;-73
2022/01/01 13:26:38;;;;;;;40.65;5.90;;;;;;;;;;5031167;28;20033;-70
2022/01/01 13:29:05;;;;;;;43.30;4.70;;;;;;;;;;5034929;28;20025;-74
2022/01/01 13:31:32;;;;;;;47.10;5.70;;;;;;;;;;5036394;28;20025;-66
2022/01/01 13:34:00;;;;;;;47.33;4.30;;;;;;;;;;5030786;28;20038;-73
2022/01/01 13:36:35;;;;;;;45.83;5.95;;;;;;;;;;5035645;28;20017;-69
2022/01/01 13:39:04;;;;;;;46.17;5.55;;;;;;;;;;5032291;28;20515;-64
2022/01/01 13:41:44;;;;;;;39.90;5.00;;;;;;;;;;5038619;28;20498;-72
2022/01/01 13:44:40;;;;;;;56.03;6.35;;;;;;;;;;5044371;28;20017;-73
2022/01/01 13:47:12;;;;;;;25.63;5.22;;;;;;;;;;5052023;28;20021;-77
2022/01/01 13:49:55;;;;;;;48.00;4.63;;;;;;;;;;5043264;28;20025;-71
2022/01/01 13:52:31;;;;;;;36.05;3.63;;;;;;;;;;5035110;28;20099;-67
2022/01/01 13:55:03;;;;;;;35.45;4.47;;;;;;;;;;5034735;28;20025;-73
2022/01/01 13:57:29;;;;;;;;;;;;;;;;;;5038258;28;20485;-69
2022/01/01 13:59:56;;;;;;;49.25;4.97;;;;;;;;;;5025595;28;19917;-70
2022/01/01 14:02:24;;;;;;;47.70;7.10;;;;;;;;;;5040129;28;20026;-63
2022/01/01 14:04:55;;;;;;;34.20;3.40;;;;;;;;;;5038156;28;20018;-63
2022/01/01 14:07:21;;;;;;;49.85;4.50;;;;;;;;;;5040839;28;20017;-64
2022/01/01 14:10:02;;;;;;;34.90;3.78;;;;;;;;;;5035243;28;20040;-63
2022/01/01 14:12:33;;;;;;;54.28;5.38;;;;;;;;;;5043181;28;20388;-61
2022/01/01 14:15:07;;;;;;;53.80;5.05;;;;;;;;;;5041046;28;20053;-63
2022/01/01 14:18:09;;;;;;;49.25;5.82;;;;;;;;;;5038990;28;20033;-65
2022/01/01 14:20:36;;;;;;;46.13;4.25;;;;;;;;;;5040037;28;20032;-64
2022/01/01 14:23:04;;;;;;;45.40;4.28;;;;;;;;;;5039243;28;20427;-62
2022/01/01 14:25:31;;;;;;;57.35;4.47;;;;;;;;;;5037504;28;20043;-63
2022/01/01 14:28:01;;;;;;;40.38;3.78;;;;;;;;;;5038399;28;20033;-61
2022/01/01 14:30:28;;;;;;;43.13;4.13;;;;;;;;;;5044182;28;20036;-64
2022/01/01 14:32:54;;;;;;;43.38;4.57;;;;;;;;;;5036257;28;20112;-64
2022/01/01 14:35:21;;;;;;;60.78;4.80;;;;;;;;;;5039382;28;20445;-63
2022/01/01 14:37:49;;;;;;;44.40;4.80;;;;;;;;;;5033320;28;20401;-64
2022/01/01 14:40:15;;;;;;;32.65;3.92;;;;;;;;;;5038871;28;20049;-64
2022/01/01 14:42:41;;;;;;;68.03;7.35;;;;;;;;;;5039300;28;20037;-63